createdAt,value
2023-01-23T00:01:16.392Z,1.61
2023-01-23T00:06:18.455Z,1.61
2023-01-23T00:11:22.939Z,1.60
2023-01-23T00:16:27.731Z,1.61
2023-01-23T00:21:37.688Z,1.62
2023-01-23T00:26:39.744Z,1.61
2023-01-23T00:31:57.122Z,1.58
2023-01-23T00:36:58.909Z,1.59
2023-01-23T00:42:00.773Z,1.60
2023-01-23T00:47:02.822Z,1.57
2023-01-23T00:52:04.747Z,1.55
2023-01-23T00:57:06.955Z,1.55
2023-01-23T01:02:09.241Z,1.54
2023-01-23T01:07:11.290Z,1.54
2023-01-23T01:12:14.265Z,1.54
2023-01-23T01:17:16.132Z,1.56
2023-01-23T01:22:18.257Z,1.56
2023-01-23T01:27:20.390Z,1.59
2023-01-23T01:32:22.471Z,1.61
2023-01-23T01:37:25.425Z,1.61
2023-01-23T01:42:28.662Z,1.63
2023-01-23T01:47:30.794Z,1.66
2023-01-23T01:52:32.923Z,1.66
2023-01-23T01:57:38.933Z,1.66
2023-01-23T02:02:54.687Z,1.66
2023-01-23T02:08:14.901Z,1.68
2023-01-23T02:13:28.247Z,1.69
2023-01-23T02:18:32.778Z,1.70
2023-01-23T02:23:34.660Z,1.71
2023-01-23T02:28:56.498Z,1.71
2023-01-23T02:34:05.296Z,1.70
2023-01-23T02:39:15.244Z,1.68
2023-01-23T02:44:31.932Z,1.68
2023-01-23T02:49:37.567Z,1.70
2023-01-23T02:54:41.019Z,1.73
2023-01-23T03:00:01.550Z,1.73
2023-01-23T03:05:06.426Z,1.71
2023-01-23T03:10:09.333Z,1.71
2023-01-23T03:15:11.762Z,1.75
2023-01-23T03:20:23.893Z,1.78
2023-01-23T03:25:26.017Z,1.79
2023-01-23T03:30:29.114Z,1.77
2023-01-23T03:35:31.185Z,1.78
2023-01-23T03:40:51.904Z,1.74
2023-01-23T03:45:54.723Z,1.70
2023-01-23T03:50:57.684Z,1.66
2023-01-23T03:56:01.620Z,1.64
2023-01-23T04:01:09.791Z,1.62
2023-01-23T04:06:17.879Z,1.63
2023-01-23T04:11:26.677Z,1.63
2023-01-23T04:16:28.878Z,1.65
2023-01-23T04:21:38.507Z,1.65
2023-01-23T04:26:41.346Z,1.66
2023-01-23T04:31:44.890Z,1.66
2023-01-23T04:36:50.934Z,1.62
2023-01-23T04:41:54.377Z,1.62
2023-01-23T04:47:08.306Z,1.65
2023-01-23T04:52:10.764Z,1.70
2023-01-23T04:57:21.016Z,1.72
2023-01-23T05:02:27.154Z,1.72
2023-01-23T05:07:29.356Z,1.70
2023-01-23T05:12:43.930Z,1.71
2023-01-23T05:23:49.419Z,1.74
2023-01-23T05:29:08.353Z,1.75
2023-01-23T05:39:35.124Z,1.73
2023-01-23T05:44:38.660Z,1.72
2023-01-23T05:49:48.045Z,1.73
2023-01-23T05:54:50.589Z,1.74
2023-01-23T06:00:05.871Z,1.74
2023-01-23T06:05:31.248Z,1.76
2023-01-23T06:10:39.056Z,1.77
2023-01-23T06:15:41.419Z,1.79
2023-01-23T06:20:46.710Z,1.82
2023-01-23T06:25:48.662Z,1.81
2023-01-23T06:31:00.761Z,1.83
2023-01-23T06:36:20.701Z,1.86
2023-01-23T06:41:24.629Z,1.84
2023-01-23T06:46:44.715Z,1.86
2023-01-23T06:52:12.338Z,1.87
2023-01-23T06:57:14.442Z,1.82
2023-01-23T07:02:17.381Z,1.79
2023-01-23T07:07:41.564Z,1.79
2023-01-23T07:12:44.055Z,1.79
2023-01-23T07:17:46.252Z,1.80
2023-01-23T07:22:49.713Z,1.81
2023-01-23T07:27:52.236Z,1.82
2023-01-23T07:32:55.820Z,1.83
2023-01-23T07:37:58.384Z,1.82
2023-01-23T07:43:00.466Z,1.85
2023-01-23T07:53:29.134Z,1.92
2023-01-23T07:58:32.414Z,1.94
2023-01-23T08:03:34.629Z,1.98
2023-01-23T08:08:36.759Z,2.03
2023-01-23T08:13:39.261Z,2.08
2023-01-23T08:18:41.737Z,2.13
2023-01-23T08:23:43.631Z,2.15
2023-01-23T08:28:46.193Z,2.17
2023-01-23T08:33:48.146Z,2.19
2023-01-23T08:38:51.529Z,2.21
2023-01-23T08:43:53.908Z,2.23
2023-01-23T08:48:55.888Z,2.23
2023-01-23T08:53:58.646Z,2.24
2023-01-23T08:59:18.271Z,2.30
2023-01-23T09:04:20.217Z,2.33
2023-01-23T09:09:22.070Z,2.35
2023-01-23T09:14:24.031Z,2.38
2023-01-23T09:19:28.913Z,2.35
2023-01-23T09:24:31.017Z,2.34
2023-01-23T09:29:33.055Z,2.32
2023-01-23T09:34:35.412Z,2.35
2023-01-23T09:39:37.285Z,2.39
2023-01-23T09:44:44.503Z,2.43
2023-01-23T09:49:58.708Z,2.39
2023-01-23T09:55:15.574Z,2.37
2023-01-23T10:00:30.879Z,2.40
2023-01-23T10:05:46.968Z,2.44
2023-01-23T10:11:17.921Z,2.47
2023-01-23T10:16:51.421Z,2.44
2023-01-23T10:22:08.695Z,2.51
2023-01-23T10:27:18.886Z,2.56
2023-01-23T10:32:29.464Z,2.58
2023-01-23T10:37:51.370Z,2.56
2023-01-23T10:42:53.135Z,2.58
2023-01-23T10:47:55.594Z,2.62
2023-01-23T10:53:06.984Z,2.69
2023-01-23T10:58:41.257Z,2.70
2023-01-23T11:03:46.007Z,2.68
2023-01-23T11:08:57.690Z,2.69
2023-01-23T11:14:06.865Z,2.72
2023-01-23T11:19:09.141Z,2.74
2023-01-23T11:24:38.603Z,2.69
2023-01-23T11:29:53.826Z,2.66
2023-01-23T11:35:11.763Z,2.66
2023-01-23T11:40:18.236Z,2.58
2023-01-23T11:45:26.179Z,2.51
2023-01-23T11:50:31.466Z,2.47
2023-01-23T11:55:56.651Z,2.43
2023-01-23T12:01:15.496Z,2.43
2023-01-23T12:06:40.700Z,2.45
2023-01-23T12:11:58.441Z,2.50
2023-01-23T12:17:09.135Z,2.53
2023-01-23T12:22:28.936Z,2.55
2023-01-23T12:27:45.310Z,2.58
2023-01-23T12:33:09.260Z,2.58
2023-01-23T12:38:20.013Z,2.52
2023-01-23T12:43:33.900Z,2.50
2023-01-23T12:48:42.955Z,2.49
2023-01-23T12:53:48.345Z,2.44
2023-01-23T12:59:05.093Z,2.42
2023-01-23T13:04:21.139Z,2.44
2023-01-23T13:09:42.618Z,2.45
2023-01-23T13:15:10.605Z,2.42
2023-01-23T13:20:48.238Z,2.38
2023-01-23T13:26:10.672Z,2.36
2023-01-23T13:31:37.870Z,2.32
2023-01-23T13:36:39.811Z,2.30
2023-01-23T13:41:42.125Z,2.30
2023-01-23T14:25:18.558Z,2.13
2023-01-23T14:30:30.343Z,2.09
2023-01-23T14:35:33.283Z,2.13
2023-01-23T14:40:49.361Z,2.15
2023-01-23T14:46:00.458Z,2.10
2023-01-23T14:51:09.769Z,2.05
2023-01-23T14:56:12.460Z,2.03
2023-01-23T15:01:14.377Z,2.03
2023-01-23T15:06:21.626Z,2.04
2023-01-23T15:11:28.644Z,2.02
2023-01-23T15:16:37.989Z,2.00
2023-01-23T15:21:41.634Z,1.99
2023-01-23T15:26:56.595Z,2.00
2023-01-23T15:32:00.020Z,1.97
2023-01-23T15:37:10.996Z,1.92
2023-01-23T15:42:12.814Z,1.92
2023-01-23T15:47:14.666Z,1.88
2023-01-23T15:52:29.043Z,1.84
2023-01-23T15:57:31.049Z,1.85
2023-01-23T16:02:35.678Z,1.86
2023-01-23T16:07:45.258Z,1.83
2023-01-23T16:12:49.714Z,1.82
2023-01-23T16:17:52.442Z,1.82
2023-01-23T16:23:15.136Z,1.83
2023-01-23T16:28:23.838Z,1.80
2023-01-23T16:33:26.117Z,1.76
2023-01-23T16:38:29.274Z,1.73
2023-01-23T16:43:31.729Z,1.73
2023-01-23T16:48:33.670Z,1.73
2023-01-23T16:53:43.771Z,1.73
2023-01-23T16:58:45.659Z,1.75
2023-01-23T17:03:55.825Z,1.79
2023-01-23T17:08:57.669Z,1.79
2023-01-23T17:14:05.011Z,1.82
2023-01-23T17:19:17.573Z,1.80
2023-01-23T17:24:19.895Z,1.82
2023-01-23T17:29:21.900Z,1.83
2023-01-23T17:34:25.567Z,1.83
2023-01-23T17:39:27.416Z,1.79
2023-01-23T17:44:29.400Z,1.80
2023-01-23T17:49:32.490Z,1.79
2023-01-23T17:54:34.650Z,1.83
2023-01-23T17:59:36.691Z,1.84
2023-01-23T18:04:39.567Z,1.85
2023-01-23T18:09:41.571Z,1.80
2023-01-23T18:15:19.215Z,1.80
2023-01-23T18:20:22.895Z,1.79
2023-01-23T18:25:31.267Z,1.82
2023-01-23T18:30:53.343Z,1.82
2023-01-23T18:36:29.004Z,1.81
2023-01-23T18:41:31.114Z,1.77
2023-01-23T18:46:33.216Z,1.78
2023-01-23T18:52:19.232Z,1.77
2023-01-23T18:57:36.886Z,1.77
2023-01-23T19:02:50.496Z,1.75
2023-01-23T19:07:52.634Z,1.71
2023-01-23T19:13:12.658Z,1.73
2023-01-23T19:18:39.858Z,1.75
2023-01-23T19:24:08.206Z,1.71
2023-01-23T19:29:21.672Z,1.71
2023-01-23T19:34:25.469Z,1.69
2023-01-23T19:39:27.229Z,1.71
2023-01-23T19:44:30.123Z,1.72
2023-01-23T19:49:32.008Z,1.73
2023-01-23T19:54:33.816Z,1.78
2023-01-23T19:59:35.687Z,1.78
2023-01-23T20:04:37.709Z,1.78
2023-01-23T20:09:39.856Z,1.77
2023-01-23T20:14:41.741Z,1.74
2023-01-23T20:19:43.684Z,1.73
2023-01-23T20:24:45.506Z,1.73
2023-01-23T20:29:52.029Z,1.76
2023-01-23T20:34:56.693Z,1.76
2023-01-23T20:40:10.215Z,1.79
2023-01-23T20:45:12.328Z,1.78
2023-01-23T20:50:16.599Z,1.77
2023-01-23T20:55:18.550Z,1.78
2023-01-23T21:00:20.649Z,1.76
2023-01-23T21:05:23.041Z,1.75
2023-01-23T21:10:25.232Z,1.75
2023-01-23T21:15:27.070Z,1.75
2023-01-23T21:20:28.891Z,1.76
2023-01-23T21:25:30.680Z,1.75
2023-01-23T21:30:32.575Z,1.73
2023-01-23T21:35:34.466Z,1.75
2023-01-23T21:40:36.305Z,1.74
2023-01-23T21:45:38.128Z,1.71
2023-01-23T21:50:39.900Z,1.68
2023-01-23T21:55:41.686Z,1.67
2023-01-23T22:01:01.937Z,1.67
2023-01-23T22:06:04.103Z,1.63
2023-01-23T22:11:07.677Z,1.63
2023-01-23T22:16:09.702Z,1.64
2023-01-23T22:21:12.396Z,1.61
2023-01-23T22:26:14.294Z,1.62
2023-01-23T22:31:18.161Z,1.61
2023-01-23T22:36:20.518Z,1.64
2023-01-23T22:41:23.743Z,1.67
2023-01-23T22:46:27.545Z,1.68
2023-01-23T22:51:30.119Z,1.69
2023-01-23T22:56:31.980Z,1.74
2023-01-23T23:01:33.821Z,1.76
2023-01-23T23:06:35.689Z,1.72
2023-01-23T23:11:40.414Z,1.74
2023-01-23T23:16:42.478Z,1.71
2023-01-23T23:21:44.539Z,1.67
2023-01-23T23:26:46.530Z,1.67
2023-01-23T23:31:51.696Z,1.67
2023-01-23T23:36:53.655Z,1.66
2023-01-23T23:41:55.460Z,1.64
2023-01-23T23:46:58.492Z,1.65
2023-01-23T23:52:00.567Z,1.68
2023-01-23T23:57:02.409Z,1.74
